This is the latest recevied weather packets stored in our database for station/object W3TMB. If no packets are shown the sender has not sent any weather packets the latest 10 day(s).
| Time | Temp. | Humidity | Pressure | Rain* | Wind** | Luminosity | Snow |
|---|---|---|---|---|---|---|---|
| 1777663627 | 11.67° C | 71% | 1009.2 hPa | 0 mm | - | 237 W/m² | - |
| 1777663324 | 11.67° C | 72% | 1008.9 hPa | 0 mm | - | 290 W/m² | - |
| 1777663021 | 11.67° C | 71% | 1009 hPa | 0 mm | - | 204 W/m² | - |
| 1777662719 | 11.67° C | 68% | 1009 hPa | 0 mm | - | 194 W/m² | - |
| 1777662415 | 12.22° C | 67% | 1009.3 hPa | 0 mm | - | 143 W/m² | - |
| 1777662110 | 12.78° C | 61% | 1009.3 hPa | 0 mm | - | 96 W/m² | - |
| 1777661806 | 12.78° C | 60% | 1009.2 hPa | 0 mm | - | 77 W/m² | - |
| 1777661502 | 12.78° C | 61% | 1009.1 hPa | 0 mm | - | 82 W/m² | - |
| 1777661199 | 12.78° C | 59% | 1009 hPa | 0 mm | - | 113 W/m² | - |
| 1777660893 | 12.78° C | 58% | 1009 hPa | 0 mm | - | 141 W/m² | - |
| 1777660591 | 13.33° C | 56% | 1009 hPa | 0 mm | - | 147 W/m² | - |
| 1777660287 | 13.33° C | 55% | 1009 hPa | 0 mm | - | 178 W/m² | - |
| 1777659984 | 13.33° C | 54% | 1008.7 hPa | 0 mm | - | 195 W/m² | - |
| 1777659680 | 13.33° C | 55% | 1008.9 hPa | 0 mm | - | 154 W/m² | - |
| 1777659378 | 13.33° C | 53% | 1009 hPa | 0 mm | - | 126 W/m² | - |
| 1777659074 | 13.89° C | 52% | 1008.8 hPa | 0 mm | - | 128 W/m² | - |
| 1777658773 | 13.89° C | 51% | 1008.9 hPa | 0 mm | - | 127 W/m² | - |
| 1777658469 | 13.89° C | 51% | 1009.1 hPa | 0 mm | - | 108 W/m² | - |
| 1777658166 | 13.89° C | 51% | 1008.8 hPa | 0 mm | - | 121 W/m² | - |
| 1777657862 | 13.89° C | 52% | 1008.9 hPa | 0 mm | - | 161 W/m² | - |
| 1777657559 | 13.89° C | 50% | 1008.9 hPa | 0 mm | - | 168 W/m² | - |
| 1777657256 | 13.89° C | 52% | 1009 hPa | 0 mm | - | 159 W/m² | - |
| 1777656954 | 13.89° C | 52% | 1009 hPa | 0 mm | - | 132 W/m² | - |
| 1777656650 | 13.89° C | 52% | 1008.8 hPa | 0 mm | - | 154 W/m² | - |
| 1777656346 | 13.89° C | 50% | 1008.9 hPa | 0 mm | - | 191 W/m² | - |
* Rain latest hour (hover to see other rain measurements)
** Current wind speed in m/s (hover to see current wind gust speed)